Time;durP1;ratioP1;P1;durP2;ratioP2;P2;SDS_P1;SDS_P2;PMS_P1;PMS_P2;Temp;Humidity;BMP_temperature;BMP_pressure;BME280_temperature;BME280_humidity;BME280_pressure;Samples;Min_cycle;Max_cycle;Signal;HPM_P1;HPM_P2
2021/01/13 00:00:07;;;;;;;13.73;5.00;;;2.70;99.90;;;;;;5000910;28;20657;-80
2021/01/13 00:02:33;;;;;;;11.52;4.90;;;2.70;99.90;;;;;;5002210;28;20991;-79
2021/01/13 00:04:58;;;;;;;12.90;5.47;;;2.70;99.90;;;;;;5002433;28;20205;-79
2021/01/13 00:07:24;;;;;;;10.83;6.13;;;2.70;99.90;;;;;;4996261;28;20224;-79
2021/01/13 00:09:50;;;;;;;11.40;6.10;;;2.70;99.90;;;;;;5013323;28;20236;-78
2021/01/13 00:12:16;;;;;;;11.53;5.03;;;2.70;99.90;;;;;;5005017;28;20225;-78
2021/01/13 00:14:43;;;;;;;16.53;6.40;;;2.70;99.90;;;;;;4999155;28;20872;-79
2021/01/13 00:17:09;;;;;;;12.15;5.55;;;2.60;99.90;;;;;;4995358;28;20217;-79
2021/01/13 00:19:36;;;;;;;7.65;5.70;;;2.60;99.90;;;;;;5005606;28;20204;-79
2021/01/13 00:22:02;;;;;;;11.15;5.95;;;2.60;99.90;;;;;;5005563;28;20215;-79
2021/01/13 00:24:27;;;;;;;10.73;5.70;;;2.50;99.90;;;;;;4978697;28;20202;-79
2021/01/13 00:26:57;;;;;;;9.13;7.60;;;2.50;99.90;;;;;;4998520;28;20215;-79
2021/01/13 00:29:23;;;;;;;18.80;6.70;;;2.50;99.90;;;;;;5011812;28;20613;-79
2021/01/13 00:31:49;;;;;;;7.85;6.68;;;2.50;99.90;;;;;;5007187;28;20293;-79
2021/01/13 00:34:15;;;;;;;13.07;8.10;;;2.50;99.90;;;;;;5001635;28;20288;-79
2021/01/13 00:36:42;;;;;;;13.55;7.03;;;2.50;99.90;;;;;;5001942;28;20300;-79
2021/01/13 00:39:08;;;;;;;9.95;8.10;;;2.60;99.90;;;;;;5012676;28;20206;-79
2021/01/13 00:41:38;;;;;;;14.57;9.80;;;2.60;99.90;;;;;;5000938;28;20284;-79
2021/01/13 00:44:05;;;;;;;14.30;8.23;;;2.60;99.90;;;;;;4996223;28;20247;-79
2021/01/13 00:46:47;;;;;;;14.32;8.40;;;2.60;99.90;;;;;;5012009;28;20240;-79
2021/01/13 00:49:12;;;;;;;11.93;8.50;;;2.70;99.90;;;;;;5004135;28;20764;-79
2021/01/13 00:51:40;;;;;;;20.50;9.50;;;2.70;99.90;;;;;;5005929;28;20305;-78
2021/01/13 00:54:08;;;;;;;13.27;8.90;;;2.60;99.90;;;;;;4979228;28;20248;-78
2021/01/13 00:56:34;;;;;;;15.05;8.80;;;2.70;99.90;;;;;;4988124;28;20217;-78
2021/01/13 00:59:00;;;;;;;16.40;8.68;;;2.60;99.90;;;;;;5013542;28;20180;-78
2021/01/13 01:01:27;;;;;;;12.37;8.80;;;2.60;99.90;;;;;;4994864;28;20186;-78
2021/01/13 01:03:57;;;;;;;16.60;10.63;;;2.60;99.90;;;;;;5007074;28;20260;-78
2021/01/13 01:06:23;;;;;;;22.10;10.52;;;2.60;99.90;;;;;;5004765;28;20740;-78
2021/01/13 01:08:50;;;;;;;15.10;10.52;;;2.60;99.90;;;;;;5008639;28;20233;-78
2021/01/13 01:11:21;;;;;;;15.05;10.65;;;2.70;99.90;;;;;;4993714;28;20233;-78
2021/01/13 01:13:48;;;;;;;12.73;10.88;;;2.70;99.90;;;;;;5001871;28;20183;-78
2021/01/13 01:16:14;;;;;;;21.50;10.77;;;2.70;99.90;;;;;;4994477;28;20206;-79
2021/01/13 01:18:39;;;;;;;20.27;10.70;;;2.70;99.90;;;;;;5013673;28;20166;-78
2021/01/13 01:21:08;;;;;;;15.73;11.07;;;2.70;99.90;;;;;;5000245;28;20449;-78
2021/01/13 01:23:37;;;;;;;16.98;11.73;;;2.60;99.90;;;;;;4999978;28;20530;-78
2021/01/13 01:26:04;;;;;;;28.70;11.65;;;2.60;99.90;;;;;;4983612;28;20202;-78
2021/01/13 01:28:30;;;;;;;19.30;11.40;;;2.60;99.90;;;;;;4996707;28;20268;-78
2021/01/13 01:30:56;;;;;;;23.42;11.93;;;2.60;99.90;;;;;;5006841;28;20662;-78
2021/01/13 01:33:23;;;;;;;16.20;13.37;;;2.60;99.90;;;;;;5003188;28;20218;-78
2021/01/13 01:35:52;;;;;;;17.00;11.75;;;2.60;99.90;;;;;;5006350;28;20528;-78
2021/01/13 01:38:18;;;;;;;21.90;12.02;;;2.60;99.90;;;;;;4993440;28;20202;-78
2021/01/13 01:40:44;;;;;;;19.88;10.45;;;2.50;99.90;;;;;;4995041;28;20199;-78
2021/01/13 01:43:10;;;;;;;17.43;10.50;;;2.60;99.90;;;;;;4975742;28;20218;-78
2021/01/13 01:45:36;;;;;;;14.47;11.03;;;2.60;99.90;;;;;;5012449;28;20170;-78
2021/01/13 01:48:07;;;;;;;16.25;11.02;;;2.50;99.90;;;;;;5005404;28;20457;-78
2021/01/13 01:50:39;;;;;;;14.43;11.05;;;2.40;99.90;;;;;;5005725;28;20170;-78
2021/01/13 01:53:14;;;;;;;22.73;11.15;;;2.50;99.90;;;;;;4995507;28;20238;-79
2021/01/13 01:55:49;;;;;;;13.00;9.90;;;2.50;99.90;;;;;;4992718;28;20657;-79
2021/01/13 01:58:26;;;;;;;18.27;10.07;;;2.50;99.90;;;;;;4975311;28;20228;-79
2021/01/13 02:00:58;;;;;;;17.45;10.68;;;2.50;99.90;;;;;;5005933;28;20719;-79
2021/01/13 02:03:31;;;;;;;11.85;9.50;;;2.50;99.90;;;;;;5001803;28;20218;-78
2021/01/13 02:05:58;;;;;;;16.90;10.57;;;2.50;99.90;;;;;;4999776;28;20312;-78
2021/01/13 02:08:25;;;;;;;16.50;11.32;;;2.50;99.90;;;;;;5011812;28;20684;-78
2021/01/13 02:10:51;;;;;;;20.10;10.95;;;2.60;99.90;;;;;;4998269;28;20585;-78
2021/01/13 02:13:21;;;;;;;16.55;10.48;;;2.50;99.90;;;;;;4992993;28;20214;-79
2021/01/13 02:15:49;;;;;;;17.38;11.65;;;2.50;99.90;;;;;;5005522;28;20201;-79
2021/01/13 02:18:21;;;;;;;16.27;10.95;;;2.60;99.90;;;;;;5000691;28;20213;-79
2021/01/13 02:20:53;;;;;;;15.38;10.88;;;2.60;99.90;;;;;;5010908;28;20202;-79
2021/01/13 02:23:35;;;;;;;16.02;11.15;;;2.70;99.90;;;;;;4993051;28;20218;-79
2021/01/13 02:26:22;;;;;;;24.38;13.15;;;2.70;99.90;;;;;;5006596;28;20260;-79
2021/01/13 02:28:59;;;;;;;21.20;11.88;;;2.70;99.90;;;;;;5002674;28;20304;-79
2021/01/13 02:31:48;;;;;;;16.40;11.85;;;2.70;99.90;;;;;;5010692;28;20225;-79
2021/01/13 02:34:17;;;;;;;20.60;11.55;;;2.70;99.90;;;;;;4981372;28;20210;-80
2021/01/13 02:37:17;;;;;;;14.50;11.60;;;2.70;99.90;;;;;;5002307;28;20218;-79
2021/01/13 02:39:45;;;;;;;16.85;11.20;;;2.70;99.90;;;;;;4993475;28;20268;-79
2021/01/13 02:42:20;;;;;;;16.05;11.43;;;2.70;99.90;;;;;;4991227;28;20222;-79
2021/01/13 02:45:05;;;;;;;18.25;10.70;;;2.70;99.90;;;;;;5004828;28;20288;-78
2021/01/13 02:47:46;;;;;;;14.10;10.07;;;2.80;99.90;;;;;;4994644;28;20220;-78
2021/01/13 02:50:23;;;;;;;15.93;11.35;;;2.80;99.90;;;;;;5005489;28;20534;-78
2021/01/13 02:53:27;;;;;;;16.38;10.20;;;2.80;99.90;;;;;;4991690;28;20276;-78
2021/01/13 02:55:55;;;;;;;17.02;9.27;;;2.80;99.90;;;;;;4992074;28;20656;-78
2021/01/13 02:58:34;;;;;;;15.07;10.30;;;2.80;99.90;;;;;;4993197;28;20763;-78
2021/01/13 03:01:01;;;;;;;18.27;9.02;;;2.70;99.90;;;;;;5006642;28;20212;-79
2021/01/13 03:03:32;;;;;;;14.98;9.55;;;2.70;99.90;;;;;;5010914;28;20691;-78
2021/01/13 03:06:08;;;;;;;12.27;9.35;;;2.80;99.90;;;;;;4993752;28;20225;-78
2021/01/13 03:08:44;;;;;;;15.95;9.75;;;2.70;99.90;;;;;;4995089;28;20643;-78
2021/01/13 03:11:14;;;;;;;12.95;9.88;;;2.70;99.90;;;;;;5011428;28;20225;-79
2021/01/13 03:13:44;;;;;;;22.02;10.48;;;2.70;99.90;;;;;;4998629;28;20620;-79
2021/01/13 03:16:12;;;;;;;14.65;9.70;;;2.70;99.90;;;;;;4992986;28;20189;-79
2021/01/13 03:18:50;;;;;;;15.43;10.02;;;2.70;99.90;;;;;;5014242;28;20225;-79
2021/01/13 03:21:26;;;;;;;20.52;10.18;;;2.70;99.90;;;;;;4996349;28;20202;-79
2021/01/13 03:24:18;;;;;;;14.00;9.43;;;2.70;99.90;;;;;;5009519;28;20548;-78
2021/01/13 03:26:46;;;;;;;16.63;10.75;;;2.70;99.90;;;;;;5002642;28;20210;-78
2021/01/13 03:29:19;;;;;;;18.35;11.75;;;2.70;99.90;;;;;;5010429;28;20200;-78
2021/01/13 03:32:12;;;;;;;19.42;12.68;;;2.60;99.90;;;;;;4991429;28;20238;-78
2021/01/13 03:35:19;;;;;;;17.17;11.73;;;2.70;99.90;;;;;;4994844;28;20230;-80
2021/01/13 03:37:54;;;;;;;17.38;10.48;;;2.80;99.90;;;;;;4938684;29;20274;-80
2021/01/13 03:40:21;;;;;;;18.60;11.60;;;2.80;99.90;;;;;;4952777;29;20179;-80
2021/01/13 03:42:57;;;;;;;14.70;11.38;;;2.80;99.90;;;;;;4972983;28;20217;-78
2021/01/13 03:45:38;;;;;;;15.93;11.43;;;2.80;99.90;;;;;;5013262;28;20173;-80
2021/01/13 03:48:07;;;;;;;16.75;12.68;;;2.70;99.90;;;;;;5013592;28;20213;-80
2021/01/13 03:50:36;;;;;;;18.23;12.90;;;2.70;99.90;;;;;;5014086;28;20170;-80
2021/01/13 03:53:06;;;;;;;19.70;13.27;;;2.80;99.90;;;;;;5006214;28;20206;-80
2021/01/13 03:55:34;;;;;;;22.60;12.90;;;2.70;99.90;;;;;;4988509;28;20301;-80
2021/01/13 03:58:09;;;;;;;18.42;13.63;;;2.80;99.90;;;;;;4998983;28;20698;-80
2021/01/13 04:01:01;;;;;;;20.35;13.90;;;2.70;99.90;;;;;;4995013;28;20170;-80
2021/01/13 04:03:35;;;;;;;22.45;14.20;;;2.70;99.90;;;;;;4998408;28;20718;-80
2021/01/13 04:06:04;;;;;;;18.90;14.10;;;2.70;99.90;;;;;;5005895;28;20205;-80
2021/01/13 04:08:43;;;;;;;18.52;12.50;;;2.70;99.90;;;;;;4996879;28;20218;-80
2021/01/13 04:11:14;;;;;;;22.35;13.68;;;2.70;99.90;;;;;;5013326;28;20205;-80
2021/01/13 04:13:47;;;;;;;21.38;13.32;;;2.70;99.90;;;;;;4994319;28;20207;-80
2021/01/13 04:16:16;;;;;;;19.30;13.13;;;2.70;99.90;;;;;;5011015;28;20688;-80
2021/01/13 04:18:44;;;;;;;20.27;12.63;;;2.70;99.90;;;;;;5012158;28;20217;-80
2021/01/13 04:21:12;;;;;;;21.73;12.75;;;2.80;99.90;;;;;;5005590;28;20167;-79
2021/01/13 04:23:38;;;;;;;18.48;12.80;;;2.80;99.90;;;;;;5005223;28;20210;-78
2021/01/13 04:26:04;;;;;;;19.67;12.98;;;2.80;99.90;;;;;;4998308;28;20265;-78
2021/01/13 04:28:30;;;;;;;15.73;12.82;;;2.80;99.90;;;;;;5012532;28;20791;-79
2021/01/13 04:30:56;;;;;;;18.50;11.47;;;2.80;99.90;;;;;;5013245;28;20256;-79
2021/01/13 04:33:23;;;;;;;19.83;13.63;;;2.80;99.90;;;;;;5010890;28;20539;-79
2021/01/13 04:35:50;;;;;;;18.77;13.13;;;2.80;99.90;;;;;;4982363;28;20418;-78
2021/01/13 04:38:23;;;;;;;24.85;14.35;;;2.80;99.90;;;;;;5000886;28;20580;-79
2021/01/13 04:40:51;;;;;;;27.52;13.63;;;2.70;99.90;;;;;;5007271;28;20517;-78
2021/01/13 04:43:23;;;;;;;20.55;12.77;;;2.70;99.90;;;;;;5011193;28;20217;-79
2021/01/13 04:45:49;;;;;;;21.25;13.38;;;2.80;99.90;;;;;;4997761;28;20180;-78
2021/01/13 04:48:19;;;;;;;17.85;12.18;;;2.80;99.90;;;;;;5001718;28;20296;-79
2021/01/13 04:50:50;;;;;;;13.98;12.07;;;2.70;99.90;;;;;;4993562;28;20179;-78
2021/01/13 04:53:20;;;;;;;21.00;13.52;;;2.70;99.90;;;;;;5009836;28;20331;-80
2021/01/13 04:55:56;;;;;;;17.10;12.15;;;2.70;99.90;;;;;;4999809;28;20174;-80
2021/01/13 04:58:33;;;;;;;21.00;13.15;;;2.70;99.90;;;;;;5001151;28;20570;-80
2021/01/13 05:01:05;;;;;;;24.48;12.90;;;2.60;99.90;;;;;;4993589;28;20174;-80
2021/01/13 05:03:44;;;;;;;17.20;12.77;;;2.70;99.90;;;;;;5007448;28;20206;-80
2021/01/13 05:06:31;;;;;;;17.08;12.05;;;2.70;99.90;;;;;;5009022;28;20186;-80
2021/01/13 05:09:10;;;;;;;15.80;11.38;;;2.60;99.90;;;;;;4991193;28;20264;-80
2021/01/13 05:11:46;;;;;;;17.98;12.18;;;2.60;99.90;;;;;;4979302;28;20668;-80
2021/01/13 05:14:14;;;;;;;14.73;10.85;;;2.60;99.90;;;;;;5012643;28;20204;-79
2021/01/13 05:16:51;;;;;;;21.02;12.75;;;2.60;99.90;;;;;;5001120;28;20789;-80
2021/01/13 05:19:32;;;;;;;16.17;11.70;;;2.60;99.90;;;;;;5008933;28;20236;-80
2021/01/13 05:22:00;;;;;;;17.52;10.80;;;2.60;99.90;;;;;;4992715;28;20743;-80
2021/01/13 05:24:27;;;;;;;15.02;11.20;;;2.60;99.90;;;;;;5008598;28;20195;-80
2021/01/13 05:27:00;;;;;;;14.52;9.30;;;2.60;99.90;;;;;;5006630;28;20561;-80
2021/01/13 05:29:37;;;;;;;13.27;10.43;;;2.70;99.90;;;;;;4995992;28;20205;-80
2021/01/13 05:32:06;;;;;;;14.85;9.65;;;2.60;99.90;;;;;;5000485;28;20213;-79
2021/01/13 05:34:34;;;;;;;10.73;9.40;;;2.70;99.90;;;;;;4993048;28;20277;-78
2021/01/13 05:37:19;;;;;;;14.85;10.25;;;2.70;99.90;;;;;;4999454;28;20214;-78
2021/01/13 05:39:50;;;;;;;14.95;9.55;;;2.60;99.90;;;;;;4997155;28;20272;-78
2021/01/13 05:42:18;;;;;;;19.83;10.52;;;2.60;99.90;;;;;;4993052;28;20249;-79
2021/01/13 05:44:45;;;;;;;15.10;11.80;;;2.60;99.90;;;;;;4992858;28;20290;-79
2021/01/13 05:47:54;;;;;;;16.23;9.82;;;2.60;99.90;;;;;;5006813;28;20217;-79
2021/01/13 05:50:22;;;;;;;16.60;9.65;;;2.60;99.90;;;;;;4984575;28;20684;-79
2021/01/13 05:52:52;;;;;;;14.70;9.95;;;2.60;99.90;;;;;;4997090;28;20224;-79
2021/01/13 05:55:19;;;;;;;21.65;9.35;;;2.60;99.90;;;;;;4994035;28;20196;-80
2021/01/13 05:57:59;;;;;;;19.40;11.70;;;2.60;99.90;;;;;;5010824;28;20221;-79
2021/01/13 06:00:27;;;;;;;16.98;10.32;;;2.60;99.90;;;;;;5003419;28;20269;-79
2021/01/13 06:02:58;;;;;;;19.27;8.93;;;2.60;99.90;;;;;;5010394;28;20213;-80
2021/01/13 06:05:26;;;;;;;17.52;9.15;;;2.60;99.90;;;;;;4992635;28;20309;-79
2021/01/13 06:07:52;;;;;;;13.45;9.52;;;2.60;99.90;;;;;;5004040;28;20288;-79
2021/01/13 06:10:19;;;;;;;14.20;8.77;;;2.50;99.90;;;;;;5009511;28;20189;-78
2021/01/13 06:12:48;;;;;;;16.75;9.80;;;2.50;99.90;;;;;;4991014;28;20212;-79
2021/01/13 06:15:22;;;;;;;17.70;10.45;;;2.50;99.90;;;;;;4999274;28;20192;-79
2021/01/13 06:17:53;;;;;;;14.93;9.13;;;2.50;99.90;;;;;;5001425;28;20302;-79
2021/01/13 06:20:24;;;;;;;19.02;9.52;;;2.50;99.90;;;;;;4992642;28;20604;-78
2021/01/13 06:22:51;;;;;;;14.43;9.35;;;2.50;99.90;;;;;;5004754;28;20218;-78
2021/01/13 06:25:31;;;;;;;13.82;8.68;;;2.50;99.90;;;;;;5000205;28;20186;-78
2021/01/13 06:27:57;;;;;;;13.80;10.00;;;2.50;99.90;;;;;;5000587;28;20221;-79
2021/01/13 06:30:31;;;;;;;11.73;9.40;;;2.50;99.90;;;;;;5009370;28;20197;-78
2021/01/13 06:33:09;;;;;;;14.88;8.18;;;2.50;99.90;;;;;;4991040;28;20222;-79
2021/01/13 06:35:41;;;;;;;17.63;8.65;;;2.60;99.90;;;;;;5002481;28;20192;-78
2021/01/13 06:38:16;;;;;;;20.35;10.13;;;2.50;99.90;;;;;;4999328;28;20213;-79
2021/01/13 06:40:42;;;;;;;11.50;8.75;;;2.50;99.90;;;;;;4997949;28;20204;-78
2021/01/13 06:43:12;;;;;;;16.55;9.93;;;2.50;99.90;;;;;;5006443;28;20233;-79
2021/01/13 06:45:38;;;;;;;15.27;8.43;;;2.50;99.90;;;;;;5004323;28;20194;-79
2021/01/13 06:48:04;;;;;;;19.00;8.73;;;2.60;99.90;;;;;;4991687;28;20710;-79
2021/01/13 06:50:41;;;;;;;14.70;8.07;;;2.50;99.90;;;;;;4991248;28;20472;-80
2021/01/13 06:53:10;;;;;;;16.10;8.02;;;2.60;99.90;;;;;;4998412;28;20205;-79
2021/01/13 06:55:37;;;;;;;12.77;7.50;;;2.60;99.90;;;;;;4999330;28;20565;-79
2021/01/13 06:58:12;;;;;;;15.57;8.38;;;2.60;99.90;;;;;;5005921;28;20592;-79
2021/01/13 07:00:38;;;;;;;9.18;7.53;;;2.60;99.90;;;;;;4994616;28;20548;-80
2021/01/13 07:03:25;;;;;;;12.33;7.90;;;2.60;99.90;;;;;;5010040;28;20206;-80
2021/01/13 07:05:54;;;;;;;11.35;7.55;;;2.60;99.90;;;;;;5010281;28;20472;-80
2021/01/13 07:08:23;;;;;;;13.07;8.77;;;2.60;99.90;;;;;;4992643;28;20581;-80
2021/01/13 07:11:03;;;;;;;11.27;7.57;;;2.60;99.90;;;;;;4990258;28;20269;-80
2021/01/13 07:13:32;;;;;;;13.90;8.82;;;2.50;99.90;;;;;;4994064;28;20656;-81
2021/01/13 07:16:00;;;;;;;12.23;7.55;;;2.60;99.90;;;;;;5020918;23;20233;-80
2021/01/13 07:18:27;;;;;;;17.60;8.40;;;2.50;99.90;;;;;;5009953;28;20689;-79
2021/01/13 07:20:53;;;;;;;14.38;7.60;;;2.60;99.90;;;;;;5009898;28;20297;-79
2021/01/13 07:23:20;;;;;;;17.67;8.30;;;2.50;99.90;;;;;;5009796;28;20229;-80
2021/01/13 07:25:50;;;;;;;12.82;7.88;;;2.60;99.90;;;;;;5010598;28;20229;-80
2021/01/13 07:28:17;;;;;;;18.02;9.32;;;2.50;99.90;;;;;;4992511;28;20301;-80
2021/01/13 07:30:44;;;;;;;13.13;7.50;;;2.60;99.90;;;;;;4993929;28;20678;-80
2021/01/13 07:33:14;;;;;;;16.40;8.50;;;2.60;99.90;;;;;;5003652;28;20268;-81
2021/01/13 07:35:50;;;;;;;17.92;7.70;;;2.60;99.90;;;;;;4997982;28;20191;-80
2021/01/13 07:38:18;;;;;;;11.65;8.32;;;2.60;99.90;;;;;;5006991;28;20840;-79
2021/01/13 07:41:05;;;;;;;11.20;9.10;;;2.60;99.90;;;;;;5005229;28;20191;-79
2021/01/13 07:43:43;;;;;;;9.50;7.65;;;2.60;99.90;;;;;;4991010;28;20217;-79
2021/01/13 07:46:27;;;;;;;15.77;9.18;;;2.60;99.90;;;;;;5006286;28;20249;-80
2021/01/13 07:49:05;;;;;;;17.33;9.75;;;2.60;99.90;;;;;;4996365;28;20224;-79
2021/01/13 07:51:45;;;;;;;12.63;8.65;;;2.60;99.90;;;;;;4997162;28;20273;-79
2021/01/13 07:54:34;;;;;;;22.27;9.30;;;2.60;99.90;;;;;;4990095;28;20669;-80
2021/01/13 07:57:05;;;;;;;21.67;9.45;;;2.70;99.90;;;;;;5005799;28;20199;-79
2021/01/13 07:59:39;;;;;;;13.15;8.50;;;2.60;99.90;;;;;;4984537;28;20252;-79
2021/01/13 08:02:36;;;;;;;12.98;10.13;;;2.70;99.90;;;;;;4995179;28;20231;-80
2021/01/13 08:05:11;;;;;;;24.63;10.00;;;2.60;99.90;;;;;;5001031;28;20204;-80
2021/01/13 08:07:41;;;;;;;15.65;9.60;;;2.70;99.90;;;;;;5013802;28;20209;-80
2021/01/13 08:10:11;;;;;;;14.73;10.00;;;2.70;99.90;;;;;;5014198;28;20194;-80
2021/01/13 08:13:14;;;;;;;19.30;10.07;;;2.60;99.90;;;;;;5008612;28;20234;-80
2021/01/13 08:16:09;;;;;;;13.82;11.02;;;2.70;99.90;;;;;;4992793;28;20218;-81
2021/01/13 08:18:55;;;;;;;15.50;10.57;;;2.70;99.90;;;;;;5007771;28;20213;-79
2021/01/13 08:21:33;;;;;;;14.48;10.32;;;2.70;99.90;;;;;;5004210;28;20189;-81
2021/01/13 08:24:16;;;;;;;13.75;10.02;;;2.70;99.90;;;;;;5014382;28;20219;-81
2021/01/13 08:26:43;;;;;;;15.18;11.32;;;2.80;99.90;;;;;;4996294;28;20256;-81
2021/01/13 08:29:18;;;;;;;17.70;10.65;;;2.80;99.90;;;;;;5015338;28;20206;-81
2021/01/13 08:32:03;;;;;;;15.68;10.07;;;2.80;99.90;;;;;;5012174;28;20216;-80
2021/01/13 08:34:41;;;;;;;11.57;9.25;;;2.80;99.90;;;;;;4994553;28;20191;-81
2021/01/13 08:37:08;;;;;;;13.25;9.77;;;2.80;99.90;;;;;;4993275;28;20648;-80
2021/01/13 08:39:36;;;;;;;15.93;9.85;;;2.90;99.90;;;;;;4994895;28;20211;-80
2021/01/13 08:42:21;;;;;;;12.75;9.70;;;2.90;99.90;;;;;;4997148;28;20625;-81
2021/01/13 08:44:50;;;;;;;16.95;9.98;;;3.00;99.90;;;;;;5044251;23;20222;-81
2021/01/13 08:47:18;;;;;;;15.25;9.23;;;3.00;99.90;;;;;;4978434;28;20269;-80
2021/01/13 08:49:48;;;;;;;15.65;9.38;;;3.00;99.90;;;;;;4993081;28;20221;-82
2021/01/13 08:52:23;;;;;;;11.45;9.15;;;3.00;99.90;;;;;;4985144;28;20223;-80
2021/01/13 08:54:49;;;;;;;12.45;9.13;;;3.10;99.90;;;;;;4981271;28;20225;-80
2021/01/13 08:57:16;;;;;;;15.00;9.88;;;3.10;99.90;;;;;;4974818;28;20212;-80
2021/01/13 08:59:46;;;;;;;12.63;9.70;;;3.20;99.90;;;;;;4958676;28;20195;-81
2021/01/13 09:02:17;;;;;;;19.13;11.32;;;3.10;99.90;;;;;;4974621;28;20254;-80
2021/01/13 09:04:47;;;;;;;12.77;9.40;;;3.10;99.90;;;;;;4975618;28;20202;-82
2021/01/13 09:07:14;;;;;;;23.08;10.73;;;3.10;99.90;;;;;;4974887;28;20631;-80
2021/01/13 09:10:02;;;;;;;18.40;10.60;;;3.00;99.90;;;;;;4957591;28;20590;-80
2021/01/13 09:12:35;;;;;;;15.95;9.63;;;3.10;99.90;;;;;;4974449;28;20210;-81
2021/01/13 09:15:09;;;;;;;17.38;10.15;;;3.10;99.90;;;;;;4973396;28;20195;-80
2021/01/13 09:17:43;;;;;;;18.90;10.65;;;3.10;99.90;;;;;;4966888;28;20214;-82
2021/01/13 09:20:12;;;;;;;17.85;10.07;;;3.20;99.90;;;;;;4957581;28;20704;-81
2021/01/13 09:22:49;;;;;;;15.88;10.35;;;3.30;99.90;;;;;;4973487;28;20219;-80
2021/01/13 09:25:18;;;;;;;18.25;10.65;;;3.30;99.90;;;;;;4973881;28;20203;-80
2021/01/13 09:28:08;;;;;;;13.18;9.95;;;3.30;99.90;;;;;;4973745;28;20269;-80
2021/01/13 09:30:40;;;;;;;21.48;12.50;;;3.30;99.90;;;;;;4958071;28;20233;-79
2021/01/13 09:33:12;;;;;;;16.88;9.77;;;3.40;99.90;;;;;;4973975;28;20218;-79
2021/01/13 09:35:40;;;;;;;15.63;10.00;;;3.40;99.90;;;;;;4975345;28;20183;-81
2021/01/13 09:38:09;;;;;;;26.83;11.07;;;3.40;99.90;;;;;;4974168;28;20226;-80
2021/01/13 09:41:01;;;;;;;12.35;11.00;;;3.40;99.90;;;;;;4975145;28;20689;-81
2021/01/13 09:43:35;;;;;;;17.50;10.10;;;3.40;99.90;;;;;;4974781;28;20269;-81
2021/01/13 09:46:03;;;;;;;20.27;10.77;;;3.50;99.90;;;;;;4974557;28;20213;-79
2021/01/13 09:48:31;;;;;;;14.25;9.85;;;3.50;99.90;;;;;;4972627;28;20712;-79
2021/01/13 09:51:21;;;;;;;13.50;9.32;;;3.60;99.90;;;;;;4972775;28;20230;-79
2021/01/13 09:53:49;;;;;;;15.00;10.35;;;3.70;99.90;;;;;;4947159;28;20282;-79
2021/01/13 09:56:14;;;;;;;15.80;11.50;;;3.70;99.90;;;;;;4972019;28;20195;-79
2021/01/13 09:58:45;;;;;;;17.40;9.47;;;3.70;99.90;;;;;;4970872;28;20295;-79
2021/01/13 10:01:14;;;;;;;23.75;9.70;;;3.70;99.90;;;;;;4954119;28;20586;-79
2021/01/13 10:03:41;;;;;;;15.88;9.43;;;3.70;99.90;;;;;;4971772;28;20287;-79
2021/01/13 10:06:19;;;;;;;18.38;10.20;;;3.70;99.90;;;;;;4971643;28;20199;-79
2021/01/13 10:08:45;;;;;;;16.55;9.50;;;3.80;99.90;;;;;;4967499;28;20227;-80
2021/01/13 10:11:15;;;;;;;12.48;9.45;;;3.80;99.90;;;;;;4974531;28;20671;-80
2021/01/13 10:13:44;;;;;;;17.67;10.52;;;3.80;99.90;;;;;;4974704;28;20690;-80
2021/01/13 10:16:12;;;;;;;19.08;9.90;;;3.90;99.90;;;;;;4974501;28;20536;-80
2021/01/13 10:18:51;;;;;;;17.38;9.93;;;4.00;99.90;;;;;;4973812;28;20211;-80
2021/01/13 10:21:18;;;;;;;16.27;10.00;;;4.10;99.90;;;;;;4973817;28;20194;-80
2021/01/13 10:23:45;;;;;;;17.90;9.73;;;4.10;99.90;;;;;;4974187;28;20253;-80
2021/01/13 10:26:11;;;;;;;13.38;10.65;;;4.10;99.90;;;;;;4974421;28;20198;-80
2021/01/13 10:28:38;;;;;;;14.83;9.27;;;4.20;99.90;;;;;;4972866;28;20571;-80
2021/01/13 10:31:07;;;;;;;22.58;10.82;;;4.20;99.90;;;;;;4972171;28;20443;-78
2021/01/13 10:33:53;;;;;;;30.08;11.65;;;4.10;99.90;;;;;;4971559;28;20219;-78
2021/01/13 10:36:37;;;;;;;16.20;9.02;;;4.20;99.90;;;;;;4971142;28;20708;-78
2021/01/13 10:39:15;;;;;;;16.20;10.07;;;4.20;99.90;;;;;;4973211;28;20732;-80
2021/01/13 10:41:49;;;;;;;16.80;10.15;;;4.20;99.90;;;;;;4972087;28;20804;-79
2021/01/13 10:44:22;;;;;;;12.20;9.25;;;4.10;99.90;;;;;;4973240;28;20191;-79
2021/01/13 10:47:05;;;;;;;18.98;9.38;;;4.10;99.90;;;;;;4972448;28;20214;-80
2021/01/13 10:49:35;;;;;;;21.70;10.27;;;4.10;99.90;;;;;;4971650;28;20218;-78
2021/01/13 10:52:02;;;;;;;14.30;8.82;;;4.10;99.90;;;;;;4971414;28;20265;-78
2021/01/13 10:54:33;;;;;;;12.95;8.73;;;4.20;99.90;;;;;;4953937;28;20598;-78
2021/01/13 10:57:01;;;;;;;20.85;8.75;;;4.20;99.90;;;;;;4971065;28;20217;-78
2021/01/13 10:59:28;;;;;;;20.42;8.90;;;4.30;99.90;;;;;;4954073;28;20575;-78
2021/01/13 11:01:58;;;;;;;10.07;7.55;;;4.30;99.90;;;;;;4970833;28;20219;-78
2021/01/13 11:04:26;;;;;;;13.40;8.13;;;4.20;99.90;;;;;;4971219;28;20203;-78
2021/01/13 11:06:57;;;;;;;13.18;7.78;;;4.20;99.90;;;;;;4970467;28;20219;-78
2021/01/13 11:09:24;;;;;;;15.32;7.93;;;4.10;99.90;;;;;;4953879;28;20298;-78
2021/01/13 11:11:50;;;;;;;14.13;8.32;;;4.10;99.90;;;;;;4970051;28;20273;-78
2021/01/13 11:14:27;;;;;;;14.73;8.55;;;4.10;99.90;;;;;;4971016;28;20665;-78
2021/01/13 11:17:00;;;;;;;9.88;7.10;;;4.10;99.90;;;;;;4970224;28;20219;-78
2021/01/13 11:19:26;;;;;;;15.77;6.65;;;4.00;99.90;;;;;;4972631;28;20195;-80
2021/01/13 11:21:56;;;;;;;10.88;6.57;;;4.00;99.90;;;;;;4972308;28;20302;-80
2021/01/13 11:24:48;;;;;;;8.38;5.70;;;4.00;99.90;;;;;;4972798;28;20271;-80
2021/01/13 11:27:21;;;;;;;7.55;5.43;;;4.00;99.90;;;;;;4972378;28;20240;-78
2021/01/13 11:29:52;;;;;;;9.18;6.05;;;4.00;99.90;;;;;;4972067;28;20167;-79
2021/01/13 11:32:19;;;;;;;9.52;5.15;;;4.00;99.90;;;;;;4972518;28;20262;-80
2021/01/13 11:34:53;;;;;;;8.77;5.25;;;4.10;99.90;;;;;;4972819;28;20195;-79
2021/01/13 11:37:56;;;;;;;6.82;5.35;;;4.10;99.90;;;;;;4973473;28;20265;-78
2021/01/13 11:40:37;;;;;;;7.13;5.22;;;4.10;99.90;;;;;;4974797;28;20680;-78
2021/01/13 11:43:34;;;;;;;15.00;4.93;;;4.10;99.90;;;;;;4974265;28;20293;-78
2021/01/13 11:46:13;;;;;;;8.85;5.47;;;4.10;99.90;;;;;;4974811;28;20225;-78
2021/01/13 11:49:14;;;;;;;12.98;8.18;;;4.10;99.90;;;;;;4965634;28;20215;-78
2021/01/13 11:51:43;;;;;;;9.98;4.72;;;4.10;99.90;;;;;;4940413;28;20218;-78
2021/01/13 11:54:09;;;;;;;7.28;5.10;;;4.20;99.90;;;;;;4975026;28;20644;-78
2021/01/13 11:56:35;;;;;;;10.02;4.45;;;4.20;99.90;;;;;;4974348;28;20554;-78
2021/01/13 11:59:02;;;;;;;12.70;6.33;;;4.20;99.90;;;;;;4975864;28;20533;-78
2021/01/13 12:01:28;;;;;;;7.75;4.22;;;4.20;99.90;;;;;;4974062;28;20450;-78
2021/01/13 12:04:04;;;;;;;10.52;5.38;;;4.20;99.90;;;;;;4975037;28;20210;-79
2021/01/13 12:06:31;;;;;;;8.68;5.32;;;4.20;99.90;;;;;;4975509;28;20191;-79
2021/01/13 12:08:57;;;;;;;9.07;5.25;;;4.20;99.90;;;;;;4975690;28;20566;-79
2021/01/13 12:11:23;;;;;;;11.57;4.38;;;4.30;99.90;;;;;;4975597;28;20193;-80
2021/01/13 12:13:51;;;;;;;10.53;4.00;;;4.20;99.90;;;;;;4975946;28;20183;-80
2021/01/13 12:16:19;;;;;;;8.20;5.70;;;4.10;99.90;;;;;;4975339;28;20419;-79
2021/01/13 12:18:53;;;;;;;10.15;4.53;;;4.10;99.90;;;;;;4973776;28;20338;-79
2021/01/13 12:21:18;;;;;;;10.98;4.85;;;4.20;99.90;;;;;;4974221;28;20190;-78
2021/01/13 12:23:50;;;;;;;6.80;3.80;;;4.20;99.90;;;;;;4974629;28;20206;-78
2021/01/13 12:26:41;;;;;;;16.77;4.90;;;4.30;99.90;;;;;;4957336;28;20207;-78
2021/01/13 12:29:06;;;;;;;9.65;3.92;;;4.30;99.90;;;;;;4974271;28;20223;-78
2021/01/13 12:31:38;;;;;;;15.27;4.47;;;4.40;99.90;;;;;;4974260;28;20670;-77
2021/01/13 12:34:11;;;;;;;10.27;4.70;;;4.40;99.90;;;;;;4974706;28;20697;-78
2021/01/13 12:36:38;;;;;;;11.80;3.80;;;4.40;99.90;;;;;;4974634;28;20230;-78
2021/01/13 12:39:05;;;;;;;6.18;3.40;;;4.40;99.90;;;;;;4975151;28;20214;-77
2021/01/13 12:41:33;;;;;;;10.65;4.30;;;4.50;99.90;;;;;;4973723;28;20620;-78
2021/01/13 12:44:10;;;;;;;7.30;4.18;;;4.40;99.90;;;;;;4977860;28;20246;-78
2021/01/13 12:46:50;;;;;;;6.47;3.20;;;4.40;99.90;;;;;;4972181;28;20211;-78
2021/01/13 12:49:15;;;;;;;4.63;3.70;;;4.40;99.90;;;;;;4974932;28;20242;-79
2021/01/13 12:51:41;;;;;;;5.63;3.17;;;4.30;99.90;;;;;;4974762;28;20215;-79
2021/01/13 12:54:07;;;;;;;9.63;4.60;;;4.40;99.90;;;;;;4975451;28;20187;-79
2021/01/13 12:56:34;;;;;;;7.03;3.40;;;4.40;99.90;;;;;;4974580;28;20290;-80
2021/01/13 12:59:01;;;;;;;10.32;3.65;;;4.40;99.90;;;;;;4975335;28;20197;-80
2021/01/13 13:01:27;;;;;;;5.15;3.90;;;4.40;99.90;;;;;;4957480;28;20706;-79
2021/01/13 13:03:57;;;;;;;12.27;3.90;;;4.50;99.90;;;;;;4974747;28;20241;-79
2021/01/13 13:06:30;;;;;;;7.05;3.55;;;4.60;99.90;;;;;;4974705;28;20466;-79
2021/01/13 13:08:58;;;;;;;12.45;4.60;;;4.70;99.90;;;;;;4975238;28;20258;-79